METAR - Iceland

Last updated 21.04.2018 - at. 01:58

SIGMET for the last six hours

No SIGMET messages last 6 hours.

METAR from the last three hours

AerodromeTimeMessage
BIAR2018-04-21 01.00METAR BIAR 210100Z 32003KT 290V350 9999 SCT009 BKN014 OVC037 04/02 Q1013
BIAR2018-04-21 00.00METAR BIAR 210000Z 32004KT 9999 SCT009 BKN014 OVC030 04/02 Q1013
BIAR2018-04-20 23.00METAR BIAR 202300Z 31005KT 9999 FEW006 BKN009 OVC016 04/03 Q1013
BIEG2018-04-21 02.00METAR BIEG 210200Z 36007KT 2500 BR OVC003 02/02 Q1013
BIEG2018-04-21 01.00METAR BIEG 210100Z 36006KT 5000 BR OVC003 02/02 Q1013
BIEG2018-04-21 00.00METAR BIEG 210000Z 36007KT 6000 BR OVC004 03/03 Q1013
BIEG2018-04-20 23.00METAR BIEG 202300Z 01007KT 4000 -DZ BR BKN003 OVC005 03/03 Q1013
BIKF2018-04-21 01.30METAR BIKF 210130Z 17004KT 9999 -RA FEW005 BKN027 OVC040 05/05 Q1010
BIKF2018-04-21 01.00METAR BIKF 210100Z 21003KT 9999 -RA SCT004 BKN025 OVC040 05/05 Q1010
BIKF2018-04-21 00.30METAR BIKF 210030Z 16006KT 130V210 9999 -RA BKN005 OVC017 05/05 Q1010
BIKF2018-04-21 00.00METAR BIKF 210000Z 09004KT 9000 RA SCT005 BKN014 OVC024 06/06 Q1010
BIKF2018-04-20 23.30METAR BIKF 202330Z 10004KT 9000 -DZRA FEW003 BKN006 OVC027 06/06 Q1010
BIKF2018-04-20 23.00METAR BIKF 202300Z 12006KT 9000 DZRA FEW003 BKN006 OVC020 06/06 Q1010
BIRK2018-04-21 01.00METAR BIRK 210100Z 09006KT 9000 -RA BR FEW024 BKN029 OVC036 06/04 Q1010
BIRK2018-04-21 00.00METAR BIRK 210000Z 08005KT 9999 VCSH FEW024 BKN035 06/04 Q1010 REDZ
BIRK2018-04-20 23.00METAR BIRK 202300Z 09004KT 9999 -DZ FEW015 BKN032 06/04 Q1010





Other related web sites


This website is built with Eplica CMS